sensor_id;sensor_type;location;lat;lon;timestamp;P1;durP1;ratioP1;P2;durP2;ratioP2
4857;SDS011;58975;51.978;8.472;2024-03-08T00:00:12;29.13;;;13.60;;
4857;SDS011;58975;51.978;8.472;2024-03-08T00:05:12;22.08;;;12.85;;
4857;SDS011;58975;51.978;8.472;2024-03-08T00:10:11;30.13;;;14.07;;
4857;SDS011;58975;51.978;8.472;2024-03-08T00:15:11;22.85;;;13.45;;
4857;SDS011;58975;51.978;8.472;2024-03-08T00:20:13;22.38;;;12.88;;
4857;SDS011;58975;51.978;8.472;2024-03-08T00:25:10;25.38;;;13.65;;
4857;SDS011;58975;51.978;8.472;2024-03-08T00:30:08;22.15;;;13.20;;
4857;SDS011;58975;51.978;8.472;2024-03-08T00:35:05;24.17;;;13.27;;
4857;SDS011;58975;51.978;8.472;2024-03-08T00:40:05;25.42;;;12.95;;
4857;SDS011;58975;51.978;8.472;2024-03-08T00:45:05;24.85;;;14.02;;
4857;SDS011;58975;51.978;8.472;2024-03-08T00:50:02;23.05;;;13.15;;
4857;SDS011;58975;51.978;8.472;2024-03-08T00:55:02;29.92;;;14.52;;
4857;SDS011;58975;51.978;8.472;2024-03-08T00:59:58;27.40;;;14.20;;
4857;SDS011;58975;51.978;8.472;2024-03-08T01:04:54;26.15;;;12.98;;
4857;SDS011;58975;51.978;8.472;2024-03-08T01:09:51;25.58;;;14.30;;
4857;SDS011;58975;51.978;8.472;2024-03-08T01:14:48;25.00;;;14.32;;
4857;SDS011;58975;51.978;8.472;2024-03-08T01:19:45;26.95;;;14.70;;
4857;SDS011;58975;51.978;8.472;2024-03-08T01:24:41;30.33;;;15.38;;
4857;SDS011;58975;51.978;8.472;2024-03-08T01:29:37;28.65;;;15.18;;
4857;SDS011;58975;51.978;8.472;2024-03-08T01:34:35;23.73;;;12.27;;
4857;SDS011;58975;51.978;8.472;2024-03-08T01:39:32;27.70;;;15.50;;
4857;SDS011;58975;51.978;8.472;2024-03-08T01:44:28;26.70;;;15.20;;
4857;SDS011;58975;51.978;8.472;2024-03-08T01:49:26;31.58;;;15.05;;
4857;SDS011;58975;51.978;8.472;2024-03-08T01:54:24;29.52;;;16.35;;
4857;SDS011;58975;51.978;8.472;2024-03-08T01:59:20;27.13;;;14.75;;
4857;SDS011;58975;51.978;8.472;2024-03-08T02:04:17;29.67;;;15.05;;
4857;SDS011;58975;51.978;8.472;2024-03-08T02:09:13;29.58;;;16.27;;
4857;SDS011;58975;51.978;8.472;2024-03-08T02:14:10;31.58;;;16.30;;
4857;SDS011;58975;51.978;8.472;2024-03-08T02:19:07;26.02;;;14.55;;
4857;SDS011;58975;51.978;8.472;2024-03-08T02:24:06;32.30;;;15.18;;
4857;SDS011;58975;51.978;8.472;2024-03-08T02:29:02;29.55;;;14.50;;
4857;SDS011;58975;51.978;8.472;2024-03-08T02:33:58;27.48;;;15.20;;
4857;SDS011;58975;51.978;8.472;2024-03-08T02:38:55;31.48;;;15.40;;
4857;SDS011;58975;51.978;8.472;2024-03-08T02:43:52;33.08;;;17.17;;
4857;SDS011;58975;51.978;8.472;2024-03-08T02:48:48;25.45;;;14.40;;
4857;SDS011;58975;51.978;8.472;2024-03-08T02:53:45;28.65;;;15.27;;
4857;SDS011;58975;51.978;8.472;2024-03-08T02:58:44;28.33;;;15.25;;
4857;SDS011;58975;51.978;8.472;2024-03-08T03:03:44;28.70;;;16.00;;
4857;SDS011;58975;51.978;8.472;2024-03-08T03:08:43;28.48;;;14.45;;
4857;SDS011;58975;51.978;8.472;2024-03-08T03:13:41;33.42;;;16.75;;
4857;SDS011;58975;51.978;8.472;2024-03-08T03:18:44;35.00;;;16.90;;
4857;SDS011;58975;51.978;8.472;2024-03-08T03:23:41;32.70;;;16.02;;
4857;SDS011;58975;51.978;8.472;2024-03-08T03:28:41;29.52;;;15.77;;
4857;SDS011;58975;51.978;8.472;2024-03-08T03:33:37;35.53;;;14.80;;
4857;SDS011;58975;51.978;8.472;2024-03-08T03:38:34;35.70;;;15.63;;
4857;SDS011;58975;51.978;8.472;2024-03-08T03:43:31;30.35;;;15.23;;
4857;SDS011;58975;51.978;8.472;2024-03-08T03:48:27;30.55;;;14.90;;
4857;SDS011;58975;51.978;8.472;2024-03-08T03:53:24;27.90;;;15.13;;
4857;SDS011;58975;51.978;8.472;2024-03-08T03:58:22;21.80;;;11.50;;
4857;SDS011;58975;51.978;8.472;2024-03-08T04:03:19;27.70;;;14.57;;
4857;SDS011;58975;51.978;8.472;2024-03-08T04:08:15;35.13;;;16.20;;
4857;SDS011;58975;51.978;8.472;2024-03-08T04:13:13;28.85;;;15.45;;
4857;SDS011;58975;51.978;8.472;2024-03-08T04:18:11;29.60;;;15.35;;
4857;SDS011;58975;51.978;8.472;2024-03-08T04:23:08;32.35;;;16.02;;
4857;SDS011;58975;51.978;8.472;2024-03-08T04:28:05;29.80;;;15.90;;
4857;SDS011;58975;51.978;8.472;2024-03-08T04:33:01;36.42;;;16.67;;
4857;SDS011;58975;51.978;8.472;2024-03-08T04:38:00;34.05;;;16.30;;
4857;SDS011;58975;51.978;8.472;2024-03-08T04:42:57;31.05;;;16.52;;
4857;SDS011;58975;51.978;8.472;2024-03-08T04:47:54;27.75;;;13.60;;
4857;SDS011;58975;51.978;8.472;2024-03-08T04:52:51;32.00;;;16.60;;
4857;SDS011;58975;51.978;8.472;2024-03-08T04:57:48;33.95;;;16.02;;
4857;SDS011;58975;51.978;8.472;2024-03-08T05:02:44;42.42;;;16.63;;
4857;SDS011;58975;51.978;8.472;2024-03-08T05:07:41;29.90;;;16.02;;
4857;SDS011;58975;51.978;8.472;2024-03-08T05:12:39;37.90;;;17.10;;
4857;SDS011;58975;51.978;8.472;2024-03-08T05:17:36;37.78;;;18.63;;
4857;SDS011;58975;51.978;8.472;2024-03-08T05:22:32;34.20;;;15.88;;
4857;SDS011;58975;51.978;8.472;2024-03-08T05:27:29;32.42;;;15.85;;
4857;SDS011;58975;51.978;8.472;2024-03-08T05:32:25;38.08;;;17.20;;
4857;SDS011;58975;51.978;8.472;2024-03-08T05:37:26;33.65;;;15.77;;
4857;SDS011;58975;51.978;8.472;2024-03-08T05:42:23;32.00;;;16.65;;
4857;SDS011;58975;51.978;8.472;2024-03-08T05:47:19;32.95;;;17.40;;
4857;SDS011;58975;51.978;8.472;2024-03-08T05:52:16;31.25;;;16.20;;
4857;SDS011;58975;51.978;8.472;2024-03-08T05:57:12;37.55;;;17.60;;
4857;SDS011;58975;51.978;8.472;2024-03-08T06:02:10;36.15;;;17.23;;
4857;SDS011;58975;51.978;8.472;2024-03-08T06:07:06;37.13;;;18.27;;
4857;SDS011;58975;51.978;8.472;2024-03-08T06:12:08;35.55;;;18.13;;
4857;SDS011;58975;51.978;8.472;2024-03-08T06:17:07;42.05;;;18.90;;
4857;SDS011;58975;51.978;8.472;2024-03-08T06:22:03;41.65;;;18.77;;
4857;SDS011;58975;51.978;8.472;2024-03-08T06:27:01;28.27;;;13.93;;
4857;SDS011;58975;51.978;8.472;2024-03-08T06:31:58;33.25;;;16.23;;
4857;SDS011;58975;51.978;8.472;2024-03-08T06:36:56;37.20;;;16.50;;
4857;SDS011;58975;51.978;8.472;2024-03-08T06:41:57;31.80;;;17.38;;
4857;SDS011;58975;51.978;8.472;2024-03-08T06:46:54;35.20;;;18.17;;
4857;SDS011;58975;51.978;8.472;2024-03-08T06:51:55;37.50;;;17.50;;
4857;SDS011;58975;51.978;8.472;2024-03-08T06:56:53;31.63;;;16.88;;
4857;SDS011;58975;51.978;8.472;2024-03-08T07:01:49;32.67;;;16.52;;
4857;SDS011;58975;51.978;8.472;2024-03-08T07:06:46;36.40;;;17.08;;
4857;SDS011;58975;51.978;8.472;2024-03-08T07:11:44;31.65;;;16.73;;
4857;SDS011;58975;51.978;8.472;2024-03-08T07:16:40;31.25;;;16.90;;
4857;SDS011;58975;51.978;8.472;2024-03-08T07:21:37;36.88;;;18.23;;
4857;SDS011;58975;51.978;8.472;2024-03-08T07:26:34;34.55;;;17.25;;
4857;SDS011;58975;51.978;8.472;2024-03-08T07:31:30;32.25;;;17.15;;
4857;SDS011;58975;51.978;8.472;2024-03-08T07:36:45;36.53;;;17.95;;
4857;SDS011;58975;51.978;8.472;2024-03-08T07:41:42;34.80;;;16.65;;
4857;SDS011;58975;51.978;8.472;2024-03-08T07:46:38;34.03;;;18.10;;
4857;SDS011;58975;51.978;8.472;2024-03-08T07:51:35;34.95;;;17.25;;
4857;SDS011;58975;51.978;8.472;2024-03-08T07:56:31;34.65;;;16.75;;
4857;SDS011;58975;51.978;8.472;2024-03-08T08:01:27;35.08;;;17.23;;
4857;SDS011;58975;51.978;8.472;2024-03-08T08:06:24;33.33;;;17.35;;
4857;SDS011;58975;51.978;8.472;2024-03-08T08:11:21;31.17;;;15.70;;
4857;SDS011;58975;51.978;8.472;2024-03-08T08:16:18;32.22;;;16.40;;
4857;SDS011;58975;51.978;8.472;2024-03-08T08:21:14;31.23;;;16.30;;
4857;SDS011;58975;51.978;8.472;2024-03-08T08:26:11;32.60;;;16.42;;
4857;SDS011;58975;51.978;8.472;2024-03-08T08:31:07;32.55;;;17.92;;
4857;SDS011;58975;51.978;8.472;2024-03-08T08:36:04;30.80;;;16.52;;
4857;SDS011;58975;51.978;8.472;2024-03-08T08:41:01;32.42;;;15.35;;
4857;SDS011;58975;51.978;8.472;2024-03-08T08:45:58;29.98;;;16.85;;
4857;SDS011;58975;51.978;8.472;2024-03-08T08:50:56;31.00;;;16.58;;
4857;SDS011;58975;51.978;8.472;2024-03-08T08:55:52;27.65;;;15.00;;
4857;SDS011;58975;51.978;8.472;2024-03-08T09:00:49;31.45;;;16.80;;
4857;SDS011;58975;51.978;8.472;2024-03-08T09:05:46;27.33;;;15.82;;
4857;SDS011;58975;51.978;8.472;2024-03-08T09:10:42;33.42;;;16.73;;
4857;SDS011;58975;51.978;8.472;2024-03-08T09:15:40;29.95;;;16.05;;
4857;SDS011;58975;51.978;8.472;2024-03-08T09:20:38;33.13;;;17.02;;
4857;SDS011;58975;51.978;8.472;2024-03-08T09:25:34;29.90;;;15.85;;
4857;SDS011;58975;51.978;8.472;2024-03-08T09:30:31;31.02;;;16.15;;
4857;SDS011;58975;51.978;8.472;2024-03-08T09:35:27;32.00;;;16.38;;
4857;SDS011;58975;51.978;8.472;2024-03-08T09:40:24;30.83;;;15.90;;
4857;SDS011;58975;51.978;8.472;2024-03-08T09:45:21;25.05;;;14.02;;
4857;SDS011;58975;51.978;8.472;2024-03-08T09:50:18;29.00;;;15.23;;
4857;SDS011;58975;51.978;8.472;2024-03-08T09:55:15;23.80;;;13.70;;
4857;SDS011;58975;51.978;8.472;2024-03-08T10:00:14;28.83;;;15.00;;
4857;SDS011;58975;51.978;8.472;2024-03-08T10:05:20;27.20;;;15.63;;
4857;SDS011;58975;51.978;8.472;2024-03-08T10:10:18;24.33;;;14.15;;
4857;SDS011;58975;51.978;8.472;2024-03-08T10:15:15;27.92;;;14.45;;
4857;SDS011;58975;51.978;8.472;2024-03-08T10:20:16;25.58;;;13.00;;
4857;SDS011;58975;51.978;8.472;2024-03-08T10:25:14;21.10;;;13.15;;
4857;SDS011;58975;51.978;8.472;2024-03-08T10:30:14;26.80;;;12.90;;
4857;SDS011;58975;51.978;8.472;2024-03-08T10:35:15;22.73;;;13.00;;
4857;SDS011;58975;51.978;8.472;2024-03-08T10:40:15;20.43;;;12.30;;
4857;SDS011;58975;51.978;8.472;2024-03-08T10:50:29;18.75;;;11.00;;
4857;SDS011;58975;51.978;8.472;2024-03-08T10:55:30;26.25;;;13.13;;
4857;SDS011;58975;51.978;8.472;2024-03-08T11:00:30;23.27;;;12.38;;
4857;SDS011;58975;51.978;8.472;2024-03-08T11:05:31;21.40;;;12.20;;
4857;SDS011;58975;51.978;8.472;2024-03-08T11:10:31;23.77;;;12.80;;
4857;SDS011;58975;51.978;8.472;2024-03-08T11:15:29;20.85;;;11.77;;
4857;SDS011;58975;51.978;8.472;2024-03-08T11:20:25;21.88;;;12.57;;
4857;SDS011;58975;51.978;8.472;2024-03-08T11:25:30;20.40;;;11.75;;
4857;SDS011;58975;51.978;8.472;2024-03-08T11:30:28;21.38;;;11.60;;
4857;SDS011;58975;51.978;8.472;2024-03-08T11:35:25;20.65;;;11.38;;
4857;SDS011;58975;51.978;8.472;2024-03-08T11:40:21;19.35;;;11.27;;
4857;SDS011;58975;51.978;8.472;2024-03-08T11:45:19;21.02;;;11.85;;
4857;SDS011;58975;51.978;8.472;2024-03-08T11:50:17;20.35;;;12.65;;
4857;SDS011;58975;51.978;8.472;2024-03-08T11:55:17;22.42;;;13.07;;
4857;SDS011;58975;51.978;8.472;2024-03-08T12:00:18;23.83;;;13.82;;
4857;SDS011;58975;51.978;8.472;2024-03-08T12:05:21;26.95;;;15.32;;
4857;SDS011;58975;51.978;8.472;2024-03-08T12:10:18;29.25;;;14.57;;
4857;SDS011;58975;51.978;8.472;2024-03-08T12:15:23;25.63;;;15.15;;
4857;SDS011;58975;51.978;8.472;2024-03-08T12:25:18;22.98;;;13.43;;
4857;SDS011;58975;51.978;8.472;2024-03-08T12:35:17;21.55;;;12.68;;
4857;SDS011;58975;51.978;8.472;2024-03-08T12:40:14;25.42;;;13.45;;
4857;SDS011;58975;51.978;8.472;2024-03-08T12:45:13;21.25;;;12.45;;
4857;SDS011;58975;51.978;8.472;2024-03-08T12:50:10;17.77;;;10.75;;
4857;SDS011;58975;51.978;8.472;2024-03-08T12:55:07;19.67;;;10.38;;
4857;SDS011;58975;51.978;8.472;2024-03-08T13:00:04;18.90;;;10.48;;
4857;SDS011;58975;51.978;8.472;2024-03-08T13:05:01;17.52;;;10.00;;
4857;SDS011;58975;51.978;8.472;2024-03-08T13:09:58;18.85;;;10.20;;
4857;SDS011;58975;51.978;8.472;2024-03-08T13:14:55;20.33;;;11.90;;
4857;SDS011;58975;51.978;8.472;2024-03-08T13:19:53;20.02;;;11.48;;
4857;SDS011;58975;51.978;8.472;2024-03-08T13:24:53;23.30;;;11.57;;
4857;SDS011;58975;51.978;8.472;2024-03-08T13:29:50;20.05;;;12.32;;
4857;SDS011;58975;51.978;8.472;2024-03-08T13:34:46;22.50;;;12.27;;
4857;SDS011;58975;51.978;8.472;2024-03-08T13:39:47;25.70;;;11.05;;
4857;SDS011;58975;51.978;8.472;2024-03-08T13:44:47;27.10;;;13.23;;
4857;SDS011;58975;51.978;8.472;2024-03-08T13:49:43;21.30;;;12.45;;
4857;SDS011;58975;51.978;8.472;2024-03-08T13:54:40;23.30;;;12.98;;
4857;SDS011;58975;51.978;8.472;2024-03-08T13:59:37;24.52;;;12.60;;
4857;SDS011;58975;51.978;8.472;2024-03-08T14:04:34;22.57;;;13.57;;
4857;SDS011;58975;51.978;8.472;2024-03-08T14:09:31;23.98;;;13.73;;
4857;SDS011;58975;51.978;8.472;2024-03-08T14:14:27;24.67;;;13.38;;
4857;SDS011;58975;51.978;8.472;2024-03-08T14:19:24;23.60;;;13.55;;
4857;SDS011;58975;51.978;8.472;2024-03-08T14:24:20;22.25;;;12.07;;
4857;SDS011;58975;51.978;8.472;2024-03-08T14:29:17;22.63;;;13.10;;
4857;SDS011;58975;51.978;8.472;2024-03-08T14:34:16;21.55;;;12.05;;
4857;SDS011;58975;51.978;8.472;2024-03-08T14:39:13;27.20;;;12.63;;
4857;SDS011;58975;51.978;8.472;2024-03-08T14:44:10;18.52;;;10.77;;
4857;SDS011;58975;51.978;8.472;2024-03-08T14:49:06;19.42;;;11.68;;
4857;SDS011;58975;51.978;8.472;2024-03-08T14:54:03;19.65;;;11.00;;
4857;SDS011;58975;51.978;8.472;2024-03-08T14:59:02;24.48;;;12.55;;
4857;SDS011;58975;51.978;8.472;2024-03-08T15:04:01;19.23;;;11.20;;
4857;SDS011;58975;51.978;8.472;2024-03-08T15:09:07;23.95;;;12.55;;
4857;SDS011;58975;51.978;8.472;2024-03-08T15:14:08;23.38;;;12.88;;
4857;SDS011;58975;51.978;8.472;2024-03-08T15:19:08;23.08;;;12.95;;
4857;SDS011;58975;51.978;8.472;2024-03-08T15:24:05;22.88;;;13.05;;
4857;SDS011;58975;51.978;8.472;2024-03-08T15:29:06;25.38;;;12.65;;
4857;SDS011;58975;51.978;8.472;2024-03-08T15:34:03;21.75;;;12.77;;
4857;SDS011;58975;51.978;8.472;2024-03-08T15:39:03;24.42;;;12.85;;
4857;SDS011;58975;51.978;8.472;2024-03-08T15:44:07;19.20;;;11.32;;
4857;SDS011;58975;51.978;8.472;2024-03-08T15:49:03;26.45;;;13.13;;
4857;SDS011;58975;51.978;8.472;2024-03-08T15:54:01;24.10;;;12.47;;
4857;SDS011;58975;51.978;8.472;2024-03-08T15:59:00;26.23;;;13.93;;
4857;SDS011;58975;51.978;8.472;2024-03-08T16:04:02;25.25;;;13.38;;
4857;SDS011;58975;51.978;8.472;2024-03-08T16:09:00;25.97;;;12.77;;
4857;SDS011;58975;51.978;8.472;2024-03-08T16:13:56;22.13;;;12.23;;
4857;SDS011;58975;51.978;8.472;2024-03-08T16:18:54;26.00;;;14.13;;
4857;SDS011;58975;51.978;8.472;2024-03-08T16:23:50;23.48;;;12.85;;
4857;SDS011;58975;51.978;8.472;2024-03-08T16:28:49;26.55;;;13.73;;
4857;SDS011;58975;51.978;8.472;2024-03-08T16:33:46;24.35;;;13.10;;
4857;SDS011;58975;51.978;8.472;2024-03-08T16:38:43;24.13;;;12.77;;
4857;SDS011;58975;51.978;8.472;2024-03-08T16:48:40;27.35;;;14.32;;
4857;SDS011;58975;51.978;8.472;2024-03-08T16:53:37;26.30;;;14.73;;
4857;SDS011;58975;51.978;8.472;2024-03-08T16:58:38;29.55;;;14.32;;
4857;SDS011;58975;51.978;8.472;2024-03-08T17:03:37;28.58;;;15.32;;
4857;SDS011;58975;51.978;8.472;2024-03-08T17:08:51;29.52;;;16.20;;
4857;SDS011;58975;51.978;8.472;2024-03-08T17:13:48;32.72;;;14.85;;
4857;SDS011;58975;51.978;8.472;2024-03-08T17:18:45;31.75;;;15.73;;
4857;SDS011;58975;51.978;8.472;2024-03-08T17:23:41;29.08;;;16.38;;
4857;SDS011;58975;51.978;8.472;2024-03-08T17:28:38;26.73;;;14.30;;
4857;SDS011;58975;51.978;8.472;2024-03-08T17:33:38;27.80;;;15.07;;
4857;SDS011;58975;51.978;8.472;2024-03-08T17:38:38;27.25;;;15.10;;
4857;SDS011;58975;51.978;8.472;2024-03-08T17:43:45;28.40;;;15.02;;
4857;SDS011;58975;51.978;8.472;2024-03-08T17:48:42;29.30;;;15.88;;
4857;SDS011;58975;51.978;8.472;2024-03-08T17:53:39;32.65;;;16.30;;
4857;SDS011;58975;51.978;8.472;2024-03-08T17:58:35;26.05;;;14.27;;
4857;SDS011;58975;51.978;8.472;2024-03-08T18:03:32;29.35;;;15.27;;
4857;SDS011;58975;51.978;8.472;2024-03-08T18:08:29;28.13;;;15.45;;
4857;SDS011;58975;51.978;8.472;2024-03-08T18:13:25;28.80;;;15.00;;
4857;SDS011;58975;51.978;8.472;2024-03-08T18:18:23;31.85;;;15.45;;
4857;SDS011;58975;51.978;8.472;2024-03-08T18:23:19;34.47;;;15.00;;
4857;SDS011;58975;51.978;8.472;2024-03-08T18:28:19;29.98;;;15.07;;
4857;SDS011;58975;51.978;8.472;2024-03-08T18:33:17;29.10;;;16.02;;
4857;SDS011;58975;51.978;8.472;2024-03-08T18:38:14;28.48;;;16.20;;
4857;SDS011;58975;51.978;8.472;2024-03-08T18:43:10;28.17;;;15.27;;
4857;SDS011;58975;51.978;8.472;2024-03-08T18:48:07;27.63;;;15.35;;
4857;SDS011;58975;51.978;8.472;2024-03-08T18:53:04;32.33;;;15.70;;
4857;SDS011;58975;51.978;8.472;2024-03-08T18:58:03;28.05;;;15.32;;
4857;SDS011;58975;51.978;8.472;2024-03-08T19:03:00;28.15;;;15.18;;
4857;SDS011;58975;51.978;8.472;2024-03-08T19:07:58;32.00;;;15.45;;
4857;SDS011;58975;51.978;8.472;2024-03-08T19:12:58;30.27;;;15.52;;
4857;SDS011;58975;51.978;8.472;2024-03-08T19:18:01;32.75;;;16.50;;
4857;SDS011;58975;51.978;8.472;2024-03-08T19:23:01;32.45;;;16.42;;
4857;SDS011;58975;51.978;8.472;2024-03-08T19:27:59;32.03;;;15.17;;
4857;SDS011;58975;51.978;8.472;2024-03-08T19:32:57;31.85;;;15.70;;
4857;SDS011;58975;51.978;8.472;2024-03-08T19:37:54;32.00;;;16.47;;
4857;SDS011;58975;51.978;8.472;2024-03-08T19:42:54;32.22;;;15.63;;
4857;SDS011;58975;51.978;8.472;2024-03-08T19:47:52;32.95;;;18.20;;
4857;SDS011;58975;51.978;8.472;2024-03-08T19:52:51;33.00;;;16.25;;
4857;SDS011;58975;51.978;8.472;2024-03-08T19:57:48;33.63;;;15.63;;
4857;SDS011;58975;51.978;8.472;2024-03-08T20:02:48;31.00;;;16.10;;
4857;SDS011;58975;51.978;8.472;2024-03-08T20:07:45;33.33;;;15.45;;
4857;SDS011;58975;51.978;8.472;2024-03-08T20:12:42;35.00;;;16.75;;
4857;SDS011;58975;51.978;8.472;2024-03-08T20:17:40;33.30;;;17.38;;
4857;SDS011;58975;51.978;8.472;2024-03-08T20:22:37;38.67;;;18.92;;
4857;SDS011;58975;51.978;8.472;2024-03-08T20:27:34;35.60;;;17.17;;
4857;SDS011;58975;51.978;8.472;2024-03-08T20:32:34;34.92;;;17.45;;
4857;SDS011;58975;51.978;8.472;2024-03-08T20:37:31;32.42;;;16.38;;
4857;SDS011;58975;51.978;8.472;2024-03-08T20:42:27;33.35;;;16.48;;
4857;SDS011;58975;51.978;8.472;2024-03-08T20:47:24;35.38;;;16.48;;
4857;SDS011;58975;51.978;8.472;2024-03-08T20:52:20;37.08;;;17.55;;
4857;SDS011;58975;51.978;8.472;2024-03-08T20:57:17;35.67;;;17.02;;
4857;SDS011;58975;51.978;8.472;2024-03-08T21:02:14;34.88;;;17.95;;
4857;SDS011;58975;51.978;8.472;2024-03-08T21:07:12;35.58;;;17.92;;
4857;SDS011;58975;51.978;8.472;2024-03-08T21:12:09;34.05;;;16.65;;
4857;SDS011;58975;51.978;8.472;2024-03-08T21:17:07;34.25;;;18.15;;
4857;SDS011;58975;51.978;8.472;2024-03-08T21:22:03;32.78;;;18.23;;
4857;SDS011;58975;51.978;8.472;2024-03-08T21:27:00;36.03;;;18.08;;
4857;SDS011;58975;51.978;8.472;2024-03-08T21:31:57;35.33;;;17.20;;
4857;SDS011;58975;51.978;8.472;2024-03-08T21:36:53;35.67;;;17.67;;
4857;SDS011;58975;51.978;8.472;2024-03-08T21:41:52;36.30;;;17.25;;
4857;SDS011;58975;51.978;8.472;2024-03-08T21:46:50;36.28;;;17.77;;
4857;SDS011;58975;51.978;8.472;2024-03-08T21:51:47;32.47;;;17.42;;
4857;SDS011;58975;51.978;8.472;2024-03-08T21:56:43;31.90;;;18.27;;
4857;SDS011;58975;51.978;8.472;2024-03-08T22:01:40;32.40;;;16.85;;
4857;SDS011;58975;51.978;8.472;2024-03-08T22:06:38;41.30;;;17.95;;
4857;SDS011;58975;51.978;8.472;2024-03-08T22:11:36;33.38;;;16.08;;
4857;SDS011;58975;51.978;8.472;2024-03-08T22:16:33;34.30;;;17.50;;
4857;SDS011;58975;51.978;8.472;2024-03-08T22:21:31;37.38;;;18.17;;
4857;SDS011;58975;51.978;8.472;2024-03-08T22:26:28;38.25;;;18.08;;
4857;SDS011;58975;51.978;8.472;2024-03-08T22:31:25;36.17;;;18.00;;
4857;SDS011;58975;51.978;8.472;2024-03-08T22:36:22;37.17;;;17.55;;
4857;SDS011;58975;51.978;8.472;2024-03-08T22:41:19;33.88;;;17.45;;
4857;SDS011;58975;51.978;8.472;2024-03-08T22:46:16;36.72;;;17.23;;
4857;SDS011;58975;51.978;8.472;2024-03-08T22:51:12;32.80;;;16.35;;
4857;SDS011;58975;51.978;8.472;2024-03-08T22:56:11;32.35;;;16.35;;
4857;SDS011;58975;51.978;8.472;2024-03-08T23:01:08;36.88;;;17.58;;
4857;SDS011;58975;51.978;8.472;2024-03-08T23:06:05;31.90;;;17.48;;
4857;SDS011;58975;51.978;8.472;2024-03-08T23:11:08;33.88;;;17.30;;
4857;SDS011;58975;51.978;8.472;2024-03-08T23:16:07;29.00;;;17.08;;
4857;SDS011;58975;51.978;8.472;2024-03-08T23:21:05;34.60;;;16.57;;
4857;SDS011;58975;51.978;8.472;2024-03-08T23:26:05;32.05;;;17.00;;
4857;SDS011;58975;51.978;8.472;2024-03-08T23:31:03;36.57;;;17.97;;
4857;SDS011;58975;51.978;8.472;2024-03-08T23:36:02;31.75;;;16.40;;
4857;SDS011;58975;51.978;8.472;2024-03-08T23:41:04;35.00;;;17.30;;
4857;SDS011;58975;51.978;8.472;2024-03-08T23:46:00;35.42;;;16.77;;
4857;SDS011;58975;51.978;8.472;2024-03-08T23:50:57;34.45;;;16.55;;
4857;SDS011;58975;51.978;8.472;2024-03-08T23:55:55;31.58;;;16.08;;
